sensor_id;sensor_type;location;lat;lon;timestamp;pressure;altitude;pressure_sealevel;temperature;humidity
65276;BME280;51875;49.994;14.052;2023-07-02T00:00:42;97400.47;;;19.47;83.43
65276;BME280;51875;49.994;14.052;2023-07-02T00:02:18;97405.75;;;19.58;85.22
65276;BME280;51875;49.994;14.052;2023-07-02T00:03:34;97404.09;;;19.46;90.58
65276;BME280;51875;49.994;14.052;2023-07-02T00:04:50;97412.44;;;19.30;98.96
65276;BME280;51875;49.994;14.052;2023-07-02T00:06:06;97412.09;;;19.23;100.00
65276;BME280;51875;49.994;14.052;2023-07-02T00:07:23;97414.41;;;19.05;100.00
65276;BME280;51875;49.994;14.052;2023-07-02T00:08:41;97418.72;;;18.83;100.00
65276;BME280;51875;49.994;14.052;2023-07-02T00:09:56;97417.03;;;18.82;100.00
65276;BME280;51875;49.994;14.052;2023-07-02T00:11:15;97419.22;;;18.66;100.00
65276;BME280;51875;49.994;14.052;2023-07-02T00:12:30;97431.50;;;18.67;100.00
65276;BME280;51875;49.994;14.052;2023-07-02T00:13:46;97415.94;;;18.51;100.00
65276;BME280;51875;49.994;14.052;2023-07-02T00:15:02;97417.81;;;18.37;100.00
65276;BME280;51875;49.994;14.052;2023-07-02T00:16:18;97425.75;;;18.26;100.00
65276;BME280;51875;49.994;14.052;2023-07-02T00:17:33;97420.94;;;17.95;100.00
65276;BME280;51875;49.994;14.052;2023-07-02T00:18:49;97429.50;;;17.74;100.00
65276;BME280;51875;49.994;14.052;2023-07-02T00:20:08;97433.19;;;17.60;100.00
65276;BME280;51875;49.994;14.052;2023-07-02T00:21:31;97437.22;;;17.53;100.00
65276;BME280;51875;49.994;14.052;2023-07-02T00:22:48;97433.31;;;17.46;100.00
65276;BME280;51875;49.994;14.052;2023-07-02T00:24:04;97429.03;;;17.81;100.00
65276;BME280;51875;49.994;14.052;2023-07-02T00:25:20;97431.47;;;17.59;100.00
65276;BME280;51875;49.994;14.052;2023-07-02T00:26:36;97428.22;;;17.80;100.00
65276;BME280;51875;49.994;14.052;2023-07-02T00:27:53;97433.75;;;17.77;100.00
65276;BME280;51875;49.994;14.052;2023-07-02T00:29:09;97419.22;;;17.83;100.00
65276;BME280;51875;49.994;14.052;2023-07-02T00:30:24;97429.56;;;18.10;100.00
65276;BME280;51875;49.994;14.052;2023-07-02T00:31:40;97423.34;;;17.74;100.00
65276;BME280;51875;49.994;14.052;2023-07-02T00:32:56;97426.97;;;17.97;100.00
65276;BME280;51875;49.994;14.052;2023-07-02T00:34:11;97425.78;;;18.01;100.00
65276;BME280;51875;49.994;14.052;2023-07-02T00:35:26;97425.84;;;17.88;100.00
65276;BME280;51875;49.994;14.052;2023-07-02T00:36:42;97416.66;;;18.05;100.00
65276;BME280;51875;49.994;14.052;2023-07-02T00:37:58;97420.88;;;18.08;100.00
65276;BME280;51875;49.994;14.052;2023-07-02T00:39:13;97421.63;;;18.10;100.00
65276;BME280;51875;49.994;14.052;2023-07-02T00:40:29;97414.53;;;18.11;100.00
65276;BME280;51875;49.994;14.052;2023-07-02T00:41:45;97428.72;;;18.10;100.00
65276;BME280;51875;49.994;14.052;2023-07-02T00:43:03;97416.00;;;18.02;100.00
65276;BME280;51875;49.994;14.052;2023-07-02T00:44:18;97419.06;;;18.09;100.00
65276;BME280;51875;49.994;14.052;2023-07-02T00:45:34;97416.06;;;18.13;100.00
65276;BME280;51875;49.994;14.052;2023-07-02T00:46:50;97420.56;;;18.13;100.00
65276;BME280;51875;49.994;14.052;2023-07-02T00:48:06;97417.38;;;18.07;100.00
65276;BME280;51875;49.994;14.052;2023-07-02T00:49:22;97416.91;;;18.02;100.00
65276;BME280;51875;49.994;14.052;2023-07-02T00:50:39;97420.78;;;18.10;100.00
65276;BME280;51875;49.994;14.052;2023-07-02T00:51:55;97418.63;;;18.15;100.00
65276;BME280;51875;49.994;14.052;2023-07-02T00:53:10;97412.94;;;18.08;100.00
65276;BME280;51875;49.994;14.052;2023-07-02T00:54:30;97411.03;;;17.86;100.00
65276;BME280;51875;49.994;14.052;2023-07-02T00:55:45;97414.25;;;18.02;100.00
65276;BME280;51875;49.994;14.052;2023-07-02T00:57:01;97417.44;;;17.95;100.00
65276;BME280;51875;49.994;14.052;2023-07-02T00:58:18;97414.25;;;17.78;100.00
65276;BME280;51875;49.994;14.052;2023-07-02T00:59:36;97419.09;;;17.60;100.00
65276;BME280;51875;49.994;14.052;2023-07-02T01:00:53;97415.25;;;17.64;100.00
65276;BME280;51875;49.994;14.052;2023-07-02T01:02:11;97416.25;;;17.99;100.00
65276;BME280;51875;49.994;14.052;2023-07-02T01:03:28;97408.06;;;18.02;100.00
65276;BME280;51875;49.994;14.052;2023-07-02T01:04:44;97411.19;;;17.96;100.00
65276;BME280;51875;49.994;14.052;2023-07-02T01:06:04;97412.25;;;17.93;100.00
65276;BME280;51875;49.994;14.052;2023-07-02T01:07:20;97409.16;;;17.99;100.00
65276;BME280;51875;49.994;14.052;2023-07-02T01:08:37;97402.75;;;17.90;100.00
65276;BME280;51875;49.994;14.052;2023-07-02T01:09:52;97409.44;;;17.83;100.00
65276;BME280;51875;49.994;14.052;2023-07-02T01:11:08;97408.38;;;18.10;100.00
65276;BME280;51875;49.994;14.052;2023-07-02T01:12:24;97401.66;;;18.17;100.00
65276;BME280;51875;49.994;14.052;2023-07-02T01:13:40;97410.63;;;18.03;100.00
65276;BME280;51875;49.994;14.052;2023-07-02T01:15:00;97405.66;;;17.99;100.00
65276;BME280;51875;49.994;14.052;2023-07-02T01:16:17;97413.66;;;18.10;100.00
65276;BME280;51875;49.994;14.052;2023-07-02T01:17:34;97406.50;;;17.99;100.00
65276;BME280;51875;49.994;14.052;2023-07-02T01:18:56;97407.03;;;18.04;100.00
65276;BME280;51875;49.994;14.052;2023-07-02T01:20:12;97406.81;;;17.83;100.00
65276;BME280;51875;49.994;14.052;2023-07-02T01:21:29;97408.94;;;18.02;100.00
65276;BME280;51875;49.994;14.052;2023-07-02T01:22:46;97416.25;;;17.99;100.00
65276;BME280;51875;49.994;14.052;2023-07-02T01:24:04;97401.63;;;17.82;100.00
65276;BME280;51875;49.994;14.052;2023-07-02T01:25:20;97411.19;;;17.96;100.00
65276;BME280;51875;49.994;14.052;2023-07-02T01:26:40;97408.50;;;17.84;100.00
65276;BME280;51875;49.994;14.052;2023-07-02T01:27:55;97410.34;;;17.71;100.00
65276;BME280;51875;49.994;14.052;2023-07-02T01:29:14;97410.66;;;17.79;100.00
65276;BME280;51875;49.994;14.052;2023-07-02T01:30:30;97409.44;;;17.83;100.00
65276;BME280;51875;49.994;14.052;2023-07-02T01:31:46;97410.78;;;17.89;100.00
65276;BME280;51875;49.994;14.052;2023-07-02T01:33:02;97401.34;;;17.73;100.00
65276;BME280;51875;49.994;14.052;2023-07-02T01:34:17;97412.66;;;17.75;100.00
65276;BME280;51875;49.994;14.052;2023-07-02T01:35:33;97403.91;;;17.75;100.00
65276;BME280;51875;49.994;14.052;2023-07-02T01:36:49;97412.09;;;17.83;100.00
65276;BME280;51875;49.994;14.052;2023-07-02T01:38:04;97404.72;;;17.75;100.00
65276;BME280;51875;49.994;14.052;2023-07-02T01:39:21;97409.59;;;17.82;100.00
65276;BME280;51875;49.994;14.052;2023-07-02T01:40:36;97405.41;;;17.90;100.00
65276;BME280;51875;49.994;14.052;2023-07-02T01:41:53;97405.88;;;17.96;100.00
65276;BME280;51875;49.994;14.052;2023-07-02T01:43:09;97408.25;;;17.87;100.00
65276;BME280;51875;49.994;14.052;2023-07-02T01:44:24;97401.28;;;17.86;100.00
65276;BME280;51875;49.994;14.052;2023-07-02T01:45:43;97410.13;;;17.98;100.00
65276;BME280;51875;49.994;14.052;2023-07-02T01:46:59;97410.84;;;18.00;100.00
65276;BME280;51875;49.994;14.052;2023-07-02T01:48:14;97409.16;;;17.99;100.00
65276;BME280;51875;49.994;14.052;2023-07-02T01:49:30;97409.00;;;18.14;100.00
65276;BME280;51875;49.994;14.052;2023-07-02T01:50:45;97406.19;;;18.04;100.00
65276;BME280;51875;49.994;14.052;2023-07-02T01:52:01;97404.59;;;18.01;100.00
65276;BME280;51875;49.994;14.052;2023-07-02T01:53:17;97404.53;;;18.14;100.00
65276;BME280;51875;49.994;14.052;2023-07-02T01:54:34;97402.38;;;18.19;100.00
65276;BME280;51875;49.994;14.052;2023-07-02T01:55:50;97395.66;;;18.38;100.00
65276;BME280;51875;49.994;14.052;2023-07-02T01:57:06;97401.75;;;18.16;100.00
65276;BME280;51875;49.994;14.052;2023-07-02T01:58:21;97404.66;;;18.13;100.00
65276;BME280;51875;49.994;14.052;2023-07-02T01:59:37;97402.25;;;18.21;100.00
65276;BME280;51875;49.994;14.052;2023-07-02T02:00:53;97404.66;;;18.13;100.00
65276;BME280;51875;49.994;14.052;2023-07-02T02:02:08;97404.69;;;18.24;100.00
65276;BME280;51875;49.994;14.052;2023-07-02T02:03:24;97410.19;;;18.21;100.00
65276;BME280;51875;49.994;14.052;2023-07-02T02:04:40;97404.59;;;18.01;100.00
65276;BME280;51875;49.994;14.052;2023-07-02T02:05:55;97407.66;;;18.08;100.00
65276;BME280;51875;49.994;14.052;2023-07-02T02:07:10;97408.88;;;18.27;100.00
65276;BME280;51875;49.994;14.052;2023-07-02T02:08:26;97409.81;;;18.14;100.00
65276;BME280;51875;49.994;14.052;2023-07-02T02:09:42;97406.06;;;18.05;100.00
65276;BME280;51875;49.994;14.052;2023-07-02T02:10:57;97408.84;;;18.15;100.00
65276;BME280;51875;49.994;14.052;2023-07-02T02:12:13;97409.69;;;18.04;100.00
65276;BME280;51875;49.994;14.052;2023-07-02T02:13:29;97402.00;;;18.13;100.00
65276;BME280;51875;49.994;14.052;2023-07-02T02:14:45;97406.72;;;18.20;100.00
65276;BME280;51875;49.994;14.052;2023-07-02T02:16:00;97407.81;;;18.29;100.00
65276;BME280;51875;49.994;14.052;2023-07-02T02:17:16;97418.53;;;18.28;100.00
65276;BME280;51875;49.994;14.052;2023-07-02T02:18:32;97413.22;;;18.16;100.00
65276;BME280;51875;49.994;14.052;2023-07-02T02:19:47;97411.97;;;18.09;100.00
65276;BME280;51875;49.994;14.052;2023-07-02T02:21:03;97419.94;;;18.09;100.00
65276;BME280;51875;49.994;14.052;2023-07-02T02:22:18;97419.44;;;18.15;100.00
65276;BME280;51875;49.994;14.052;2023-07-02T02:23:34;97413.63;;;18.46;100.00
65276;BME280;51875;49.994;14.052;2023-07-02T02:24:49;97413.56;;;18.12;100.00
65276;BME280;51875;49.994;14.052;2023-07-02T02:26:05;97421.16;;;18.16;100.00
65276;BME280;51875;49.994;14.052;2023-07-02T02:27:20;97419.47;;;18.27;100.00
65276;BME280;51875;49.994;14.052;2023-07-02T02:28:36;97421.91;;;18.30;100.00
65276;BME280;51875;49.994;14.052;2023-07-02T02:29:51;97426.84;;;18.34;100.00
65276;BME280;51875;49.994;14.052;2023-07-02T02:31:07;97423.09;;;18.26;100.00
65276;BME280;51875;49.994;14.052;2023-07-02T02:32:22;97413.59;;;18.34;100.00
65276;BME280;51875;49.994;14.052;2023-07-02T02:33:39;97413.53;;;18.47;100.00
65276;BME280;51875;49.994;14.052;2023-07-02T02:34:55;97417.09;;;18.35;100.00
65276;BME280;51875;49.994;14.052;2023-07-02T02:36:10;97412.03;;;18.20;100.00
65276;BME280;51875;49.994;14.052;2023-07-02T02:37:26;97411.53;;;18.27;100.00
65276;BME280;51875;49.994;14.052;2023-07-02T02:38:41;97416.03;;;18.38;100.00
65276;BME280;51875;49.994;14.052;2023-07-02T02:39:57;97407.22;;;18.37;100.00
65276;BME280;51875;49.994;14.052;2023-07-02T02:41:13;97408.53;;;18.31;100.00
65276;BME280;51875;49.994;14.052;2023-07-02T02:42:28;97408.44;;;18.56;100.00
65276;BME280;51875;49.994;14.052;2023-07-02T02:43:44;97406.03;;;18.41;100.00
65276;BME280;51875;49.994;14.052;2023-07-02T02:44:59;97410.13;;;18.34;100.00
65276;BME280;51875;49.994;14.052;2023-07-02T02:46:22;97406.63;;;18.45;100.00
65276;BME280;51875;49.994;14.052;2023-07-02T02:47:38;97402.31;;;18.44;100.00
65276;BME280;51875;49.994;14.052;2023-07-02T02:48:53;97405.53;;;18.36;100.00
65276;BME280;51875;49.994;14.052;2023-07-02T02:50:12;97411.09;;;18.33;100.00
65276;BME280;51875;49.994;14.052;2023-07-02T02:51:28;97408.44;;;18.33;100.00
65276;BME280;51875;49.994;14.052;2023-07-02T02:52:43;97409.88;;;18.37;100.00
65276;BME280;51875;49.994;14.052;2023-07-02T02:53:59;97406.53;;;18.46;100.00
65276;BME280;51875;49.994;14.052;2023-07-02T02:55:14;97407.63;;;18.78;100.00
65276;BME280;51875;49.994;14.052;2023-07-02T02:56:30;97405.66;;;18.34;100.00
65276;BME280;51875;49.994;14.052;2023-07-02T02:57:45;97416.97;;;18.25;100.00
65276;BME280;51875;49.994;14.052;2023-07-02T02:59:01;97413.00;;;18.42;100.00
65276;BME280;51875;49.994;14.052;2023-07-02T03:00:17;97415.69;;;18.54;100.00
65276;BME280;51875;49.994;14.052;2023-07-02T03:01:32;97421.56;;;18.34;100.00
65276;BME280;51875;49.994;14.052;2023-07-02T03:02:48;97414.94;;;18.40;100.00
65276;BME280;51875;49.994;14.052;2023-07-02T03:04:03;97416.50;;;18.31;100.00
65276;BME280;51875;49.994;14.052;2023-07-02T03:05:19;97418.19;;;18.44;100.00
65276;BME280;51875;49.994;14.052;2023-07-02T03:06:34;97419.16;;;18.43;100.00
65276;BME280;51875;49.994;14.052;2023-07-02T03:07:50;97420.63;;;18.58;100.00
65276;BME280;51875;49.994;14.052;2023-07-02T03:09:06;97425.09;;;18.46;100.00
65276;BME280;51875;49.994;14.052;2023-07-02T03:10:22;97418.44;;;18.41;100.00
65276;BME280;51875;49.994;14.052;2023-07-02T03:11:38;97421.06;;;18.29;100.00
65276;BME280;51875;49.994;14.052;2023-07-02T03:12:53;97428.22;;;18.63;100.00
65276;BME280;51875;49.994;14.052;2023-07-02T03:14:09;97425.81;;;18.60;100.00
65276;BME280;51875;49.994;14.052;2023-07-02T03:15:24;97419.78;;;18.69;100.00
65276;BME280;51875;49.994;14.052;2023-07-02T03:16:41;97421.00;;;18.76;100.00
65276;BME280;51875;49.994;14.052;2023-07-02T03:17:57;97420.16;;;18.53;100.00
65276;BME280;51875;49.994;14.052;2023-07-02T03:19:13;97427.03;;;18.90;100.00
65276;BME280;51875;49.994;14.052;2023-07-02T03:20:31;97434.88;;;18.80;100.00
65276;BME280;51875;49.994;14.052;2023-07-02T03:21:46;97436.03;;;18.42;100.00
65276;BME280;51875;49.994;14.052;2023-07-02T03:23:02;97442.22;;;18.65;100.00
65276;BME280;51875;49.994;14.052;2023-07-02T03:24:18;97438.38;;;18.81;100.00
65276;BME280;51875;49.994;14.052;2023-07-02T03:25:33;97438.97;;;18.84;100.00
65276;BME280;51875;49.994;14.052;2023-07-02T03:26:48;97432.56;;;18.98;100.00
65276;BME280;51875;49.994;14.052;2023-07-02T03:28:04;97433.81;;;19.05;100.00
65276;BME280;51875;49.994;14.052;2023-07-02T03:29:20;97434.06;;;19.02;100.00
65276;BME280;51875;49.994;14.052;2023-07-02T03:30:35;97434.28;;;18.99;100.00
65276;BME280;51875;49.994;14.052;2023-07-02T03:31:51;97436.94;;;18.88;100.00
65276;BME280;51875;49.994;14.052;2023-07-02T03:33:08;97437.53;;;18.80;100.00
65276;BME280;51875;49.994;14.052;2023-07-02T03:34:25;97440.78;;;18.84;100.00
65276;BME280;51875;49.994;14.052;2023-07-02T03:35:40;97443.72;;;19.03;100.00
65276;BME280;51875;49.994;14.052;2023-07-02T03:36:56;97445.88;;;19.10;100.00
65276;BME280;51875;49.994;14.052;2023-07-02T03:38:11;97444.53;;;19.15;100.00
65276;BME280;51875;49.994;14.052;2023-07-02T03:39:27;97451.50;;;18.82;100.00
65276;BME280;51875;49.994;14.052;2023-07-02T03:40:43;97447.53;;;18.76;100.00
65276;BME280;51875;49.994;14.052;2023-07-02T03:41:58;97443.78;;;18.68;100.00
65276;BME280;51875;49.994;14.052;2023-07-02T03:43:14;97446.56;;;18.89;100.00
65276;BME280;51875;49.994;14.052;2023-07-02T03:44:29;97445.66;;;19.01;100.00
65276;BME280;51875;49.994;14.052;2023-07-02T03:45:45;97449.47;;;18.86;100.00
65276;BME280;51875;49.994;14.052;2023-07-02T03:47:01;97456.44;;;18.75;100.00
65276;BME280;51875;49.994;14.052;2023-07-02T03:48:16;97448.00;;;18.93;100.00
65276;BME280;51875;49.994;14.052;2023-07-02T03:49:31;97453.91;;;18.74;100.00
65276;BME280;51875;49.994;14.052;2023-07-02T03:50:47;97453.28;;;18.47;100.00
65276;BME280;51875;49.994;14.052;2023-07-02T03:52:03;97456.03;;;18.46;100.00
65276;BME280;51875;49.994;14.052;2023-07-02T03:53:18;97463.63;;;18.51;100.00
65276;BME280;51875;49.994;14.052;2023-07-02T03:54:34;97464.00;;;18.57;100.00
65276;BME280;51875;49.994;14.052;2023-07-02T03:55:50;97458.44;;;18.49;100.00
65276;BME280;51875;49.994;14.052;2023-07-02T03:57:05;97460.03;;;18.52;100.00
65276;BME280;51875;49.994;14.052;2023-07-02T03:58:21;97463.19;;;18.80;100.00
65276;BME280;51875;49.994;14.052;2023-07-02T03:59:36;97465.59;;;18.60;100.00
65276;BME280;51875;49.994;14.052;2023-07-02T04:00:52;97462.94;;;18.60;100.00
65276;BME280;51875;49.994;14.052;2023-07-02T04:02:07;97469.19;;;18.70;100.00
65276;BME280;51875;49.994;14.052;2023-07-02T04:03:23;97476.91;;;18.62;100.00
65276;BME280;51875;49.994;14.052;2023-07-02T04:04:39;97472.56;;;18.49;100.00
65276;BME280;51875;49.994;14.052;2023-07-02T04:05:54;97480.19;;;18.66;100.00
65276;BME280;51875;49.994;14.052;2023-07-02T04:07:10;97480.84;;;18.45;100.00
65276;BME280;51875;49.994;14.052;2023-07-02T04:08:25;97482.81;;;18.54;100.00
65276;BME280;51875;49.994;14.052;2023-07-02T04:09:43;97484.34;;;18.57;100.00
65276;BME280;51875;49.994;14.052;2023-07-02T04:10:58;97486.41;;;18.53;100.00
65276;BME280;51875;49.994;14.052;2023-07-02T04:12:14;97475.06;;;18.40;100.00
65276;BME280;51875;49.994;14.052;2023-07-02T04:13:30;97475.03;;;18.28;100.00
65276;BME280;51875;49.994;14.052;2023-07-02T04:14:45;97476.50;;;18.08;100.00
65276;BME280;51875;49.994;14.052;2023-07-02T04:16:01;97478.88;;;18.35;100.00
65276;BME280;51875;49.994;14.052;2023-07-02T04:17:17;97477.34;;;18.09;100.00
65276;BME280;51875;49.994;14.052;2023-07-02T04:18:33;97475.47;;;17.98;100.00
65276;BME280;51875;49.994;14.052;2023-07-02T04:19:48;97472.56;;;17.89;100.00
65276;BME280;51875;49.994;14.052;2023-07-02T04:21:04;97472.28;;;18.05;100.00
65276;BME280;51875;49.994;14.052;2023-07-02T04:22:20;97480.69;;;18.35;100.00
65276;BME280;51875;49.994;14.052;2023-07-02T04:23:36;97474.34;;;18.13;100.00
65276;BME280;51875;49.994;14.052;2023-07-02T04:24:51;97478.53;;;18.40;100.00
65276;BME280;51875;49.994;14.052;2023-07-02T04:26:07;97484.16;;;18.60;100.00
65276;BME280;51875;49.994;14.052;2023-07-02T04:27:22;97488.34;;;18.62;100.00
65276;BME280;51875;49.994;14.052;2023-07-02T04:28:38;97493.28;;;18.56;100.00
65276;BME280;51875;49.994;14.052;2023-07-02T04:29:54;97492.34;;;18.68;100.00
65276;BME280;51875;49.994;14.052;2023-07-02T04:31:10;97491.09;;;18.49;100.00
65276;BME280;51875;49.994;14.052;2023-07-02T04:32:26;97501.50;;;18.64;100.00
65276;BME280;51875;49.994;14.052;2023-07-02T04:33:42;97495.16;;;18.42;100.00
65276;BME280;51875;49.994;14.052;2023-07-02T04:34:57;97495.91;;;18.44;100.00
65276;BME280;51875;49.994;14.052;2023-07-02T04:36:13;97503.16;;;18.54;100.00
65276;BME280;51875;49.994;14.052;2023-07-02T04:37:29;97500.56;;;18.76;100.00
65276;BME280;51875;49.994;14.052;2023-07-02T04:38:45;97499.69;;;18.53;100.00
65276;BME280;51875;49.994;14.052;2023-07-02T04:40:01;97495.72;;;18.59;100.00
65276;BME280;51875;49.994;14.052;2023-07-02T04:41:19;97499.09;;;18.61;100.00
65276;BME280;51875;49.994;14.052;2023-07-02T04:42:35;97492.81;;;18.62;100.00
65276;BME280;51875;49.994;14.052;2023-07-02T04:43:52;97492.44;;;18.55;100.00
65276;BME280;51875;49.994;14.052;2023-07-02T04:45:08;97495.91;;;18.56;100.00
65276;BME280;51875;49.994;14.052;2023-07-02T04:46:24;97497.63;;;18.68;100.00
65276;BME280;51875;49.994;14.052;2023-07-02T04:47:39;97494.75;;;18.60;100.00
65276;BME280;51875;49.994;14.052;2023-07-02T04:48:55;97499.47;;;18.68;100.00
65276;BME280;51875;49.994;14.052;2023-07-02T04:50:11;97497.16;;;18.63;100.00
65276;BME280;51875;49.994;14.052;2023-07-02T04:51:27;97496.25;;;18.87;100.00
65276;BME280;51875;49.994;14.052;2023-07-02T04:52:42;97497.72;;;19.02;100.00
65276;BME280;51875;49.994;14.052;2023-07-02T04:53:58;97497.56;;;18.81;100.00
65276;BME280;51875;49.994;14.052;2023-07-02T04:55:13;97498.25;;;18.72;100.00
65276;BME280;51875;49.994;14.052;2023-07-02T04:56:29;97495.91;;;19.03;100.00
65276;BME280;51875;49.994;14.052;2023-07-02T04:57:44;97495.19;;;19.12;100.00
65276;BME280;51875;49.994;14.052;2023-07-02T04:59:00;97500.72;;;19.32;100.00
65276;BME280;51875;49.994;14.052;2023-07-02T05:00:16;97491.78;;;19.44;100.00
65276;BME280;51875;49.994;14.052;2023-07-02T05:01:32;97489.50;;;19.40;100.00
65276;BME280;51875;49.994;14.052;2023-07-02T05:02:47;97476.47;;;19.48;100.00
65276;BME280;51875;49.994;14.052;2023-07-02T05:04:05;97478.41;;;19.34;100.00
65276;BME280;51875;49.994;14.052;2023-07-02T05:05:21;97473.47;;;19.41;100.00
65276;BME280;51875;49.994;14.052;2023-07-02T05:06:37;97480.31;;;19.55;100.00
65276;BME280;51875;49.994;14.052;2023-07-02T05:07:54;97469.25;;;19.39;100.00
65276;BME280;51875;49.994;14.052;2023-07-02T05:09:10;97473.84;;;19.25;100.00
65276;BME280;51875;49.994;14.052;2023-07-02T05:10:25;97473.22;;;19.44;100.00
65276;BME280;51875;49.994;14.052;2023-07-02T05:11:41;97479.13;;;19.59;100.00
65276;BME280;51875;49.994;14.052;2023-07-02T05:12:57;97480.81;;;19.49;100.00
65276;BME280;51875;49.994;14.052;2023-07-02T05:14:12;97493.59;;;19.55;100.00
65276;BME280;51875;49.994;14.052;2023-07-02T05:15:28;97491.63;;;19.69;100.00
65276;BME280;51875;49.994;14.052;2023-07-02T05:16:44;97498.50;;;19.71;100.00
65276;BME280;51875;49.994;14.052;2023-07-02T05:17:59;97491.00;;;19.76;100.00
65276;BME280;51875;49.994;14.052;2023-07-02T05:19:15;97492.47;;;19.81;100.00
65276;BME280;51875;49.994;14.052;2023-07-02T05:20:31;97490.88;;;19.89;100.00
65276;BME280;51875;49.994;14.052;2023-07-02T05:21:47;97490.69;;;20.14;100.00
65276;BME280;51875;49.994;14.052;2023-07-02T05:23:03;97486.28;;;19.80;100.00
65276;BME280;51875;49.994;14.052;2023-07-02T05:24:18;97482.72;;;19.70;100.00
65276;BME280;51875;49.994;14.052;2023-07-02T05:25:34;97486.81;;;19.74;100.00
65276;BME280;51875;49.994;14.052;2023-07-02T05:26:51;97490.56;;;19.60;100.00
65276;BME280;51875;49.994;14.052;2023-07-02T05:28:11;97490.34;;;19.63;100.00
65276;BME280;51875;49.994;14.052;2023-07-02T05:29:26;97485.75;;;19.65;100.00
65276;BME280;51875;49.994;14.052;2023-07-02T05:30:42;97487.69;;;19.63;100.00
65276;BME280;51875;49.994;14.052;2023-07-02T05:31:57;97481.66;;;19.50;100.00
65276;BME280;51875;49.994;14.052;2023-07-02T05:33:13;97488.25;;;19.67;100.00
65276;BME280;51875;49.994;14.052;2023-07-02T05:34:29;97489.56;;;19.72;100.00
65276;BME280;51875;49.994;14.052;2023-07-02T05:35:44;97486.13;;;19.49;100.00
65276;BME280;51875;49.994;14.052;2023-07-02T05:37:01;97486.81;;;19.62;100.00
65276;BME280;51875;49.994;14.052;2023-07-02T05:38:18;97492.56;;;19.35;100.00
65276;BME280;51875;49.994;14.052;2023-07-02T05:39:34;97497.00;;;19.46;100.00
65276;BME280;51875;49.994;14.052;2023-07-02T05:40:50;97489.72;;;19.59;100.00
65276;BME280;51875;49.994;14.052;2023-07-02T05:42:05;97484.44;;;19.48;100.00
65276;BME280;51875;49.994;14.052;2023-07-02T05:43:21;97493.13;;;19.39;100.00
65276;BME280;51875;49.994;14.052;2023-07-02T05:44:37;97496.47;;;19.75;100.00
65276;BME280;51875;49.994;14.052;2023-07-02T05:45:52;97497.19;;;19.66;100.00
65276;BME280;51875;49.994;14.052;2023-07-02T05:47:08;97487.16;;;19.69;100.00
65276;BME280;51875;49.994;14.052;2023-07-02T05:48:24;97492.47;;;19.69;100.00
65276;BME280;51875;49.994;14.052;2023-07-02T05:49:41;97496.47;;;19.75;100.00
65276;BME280;51875;49.994;14.052;2023-07-02T05:50:57;97501.59;;;19.88;100.00
65276;BME280;51875;49.994;14.052;2023-07-02T05:52:13;97502.41;;;20.11;100.00
65276;BME280;51875;49.994;14.052;2023-07-02T05:53:29;97491.34;;;19.95;100.00
65276;BME280;51875;49.994;14.052;2023-07-02T05:54:45;97503.16;;;19.90;100.00
65276;BME280;51875;49.994;14.052;2023-07-02T05:56:01;97499.91;;;19.98;100.00
65276;BME280;51875;49.994;14.052;2023-07-02T05:57:16;97495.41;;;20.10;100.00
65276;BME280;51875;49.994;14.052;2023-07-02T05:58:32;97504.16;;;20.01;100.00
65276;BME280;51875;49.994;14.052;2023-07-02T05:59:49;97499.38;;;20.16;100.00
65276;BME280;51875;49.994;14.052;2023-07-02T06:01:04;97501.97;;;20.27;100.00
65276;BME280;51875;49.994;14.052;2023-07-02T06:02:21;97499.59;;;20.45;100.00
65276;BME280;51875;49.994;14.052;2023-07-02T06:03:37;97506.91;;;20.32;100.00
65276;BME280;51875;49.994;14.052;2023-07-02T06:04:53;97501.88;;;20.29;100.00
65276;BME280;51875;49.994;14.052;2023-07-02T06:06:08;97507.22;;;20.17;100.00
65276;BME280;51875;49.994;14.052;2023-07-02T06:07:25;97500.88;;;19.97;100.00
65276;BME280;51875;49.994;14.052;2023-07-02T06:08:41;97515.84;;;19.87;100.00
65276;BME280;51875;49.994;14.052;2023-07-02T06:09:57;97517.44;;;20.01;100.00
65276;BME280;51875;49.994;14.052;2023-07-02T06:11:13;97516.81;;;20.09;100.00
65276;BME280;51875;49.994;14.052;2023-07-02T06:12:29;97515.16;;;20.29;100.00
65276;BME280;51875;49.994;14.052;2023-07-02T06:13:45;97513.56;;;19.94;100.00
65276;BME280;51875;49.994;14.052;2023-07-02T06:15:02;97517.88;;;20.06;100.00
65276;BME280;51875;49.994;14.052;2023-07-02T06:16:17;97521.78;;;20.02;100.00
65276;BME280;51875;49.994;14.052;2023-07-02T06:17:33;97516.97;;;19.84;100.00
65276;BME280;51875;49.994;14.052;2023-07-02T06:18:48;97523.66;;;20.11;100.00
65276;BME280;51875;49.994;14.052;2023-07-02T06:20:05;97524.44;;;20.02;100.00
65276;BME280;51875;49.994;14.052;2023-07-02T06:21:21;97527.22;;;20.33;100.00
65276;BME280;51875;49.994;14.052;2023-07-02T06:22:37;97536.75;;;20.36;100.00
65276;BME280;51875;49.994;14.052;2023-07-02T06:23:53;97531.84;;;20.20;100.00
65276;BME280;51875;49.994;14.052;2023-07-02T06:25:08;97536.19;;;20.21;100.00
65276;BME280;51875;49.994;14.052;2023-07-02T06:26:24;97530.91;;;20.42;100.00
65276;BME280;51875;49.994;14.052;2023-07-02T06:27:39;97538.91;;;20.42;100.00
65276;BME280;51875;49.994;14.052;2023-07-02T06:28:55;97536.50;;;20.39;100.00
65276;BME280;51875;49.994;14.052;2023-07-02T06:30:11;97533.00;;;20.59;100.00
65276;BME280;51875;49.994;14.052;2023-07-02T06:31:27;97531.59;;;20.77;100.00
65276;BME280;51875;49.994;14.052;2023-07-02T06:32:42;97522.31;;;20.71;100.00